sensor_id;sensor_type;location;lat;lon;timestamp;P1;durP1;ratioP1;P2;durP2;ratioP2
16442;SDS011;8331;51.654;14.376;2023-04-25T00:01:56;3.00;;;2.70;;
16442;SDS011;8331;51.654;14.376;2023-04-25T00:04:23;2.33;;;2.23;;
16442;SDS011;8331;51.654;14.376;2023-04-25T00:06:52;2.77;;;2.57;;
16442;SDS011;8331;51.654;14.376;2023-04-25T00:09:18;3.37;;;2.63;;
16442;SDS011;8331;51.654;14.376;2023-04-25T00:11:45;3.30;;;3.00;;
16442;SDS011;8331;51.654;14.376;2023-04-25T00:14:11;2.57;;;2.43;;
16442;SDS011;8331;51.654;14.376;2023-04-25T00:16:38;2.60;;;2.40;;
16442;SDS011;8331;51.654;14.376;2023-04-25T00:19:05;2.93;;;2.73;;
16442;SDS011;8331;51.654;14.376;2023-04-25T00:21:32;3.50;;;3.20;;
16442;SDS011;8331;51.654;14.376;2023-04-25T00:23:59;3.57;;;3.00;;
16442;SDS011;8331;51.654;14.376;2023-04-25T00:26:26;3.10;;;2.90;;
16442;SDS011;8331;51.654;14.376;2023-04-25T00:28:53;3.50;;;3.13;;
16442;SDS011;8331;51.654;14.376;2023-04-25T00:31:19;4.20;;;3.27;;
16442;SDS011;8331;51.654;14.376;2023-04-25T00:33:46;3.80;;;3.50;;
16442;SDS011;8331;51.654;14.376;2023-04-25T00:36:13;8.07;;;3.23;;
16442;SDS011;8331;51.654;14.376;2023-04-25T00:38:40;4.97;;;4.00;;
16442;SDS011;8331;51.654;14.376;2023-04-25T00:41:07;3.57;;;3.27;;
16442;SDS011;8331;51.654;14.376;2023-04-25T00:43:33;5.43;;;3.13;;
16442;SDS011;8331;51.654;14.376;2023-04-25T00:46:00;3.80;;;3.50;;
16442;SDS011;8331;51.654;14.376;2023-04-25T00:48:27;3.43;;;2.97;;
16442;SDS011;8331;51.654;14.376;2023-04-25T00:50:54;3.60;;;3.30;;
16442;SDS011;8331;51.654;14.376;2023-04-25T00:53:21;3.87;;;3.57;;
16442;SDS011;8331;51.654;14.376;2023-04-25T00:55:48;4.10;;;3.53;;
16442;SDS011;8331;51.654;14.376;2023-04-25T00:58:17;3.93;;;3.53;;
16442;SDS011;8331;51.654;14.376;2023-04-25T01:00:45;3.93;;;3.63;;
16442;SDS011;8331;51.654;14.376;2023-04-25T01:03:12;4.00;;;3.60;;
16442;SDS011;8331;51.654;14.376;2023-04-25T01:05:40;3.83;;;3.53;;
16442;SDS011;8331;51.654;14.376;2023-04-25T01:08:08;4.33;;;3.43;;
16442;SDS011;8331;51.654;14.376;2023-04-25T01:10:34;3.77;;;3.27;;
16442;SDS011;8331;51.654;14.376;2023-04-25T01:13:01;4.43;;;3.93;;
16442;SDS011;8331;51.654;14.376;2023-04-25T01:15:28;4.27;;;3.87;;
16442;SDS011;8331;51.654;14.376;2023-04-25T01:17:54;5.60;;;3.70;;
16442;SDS011;8331;51.654;14.376;2023-04-25T01:20:22;4.50;;;3.47;;
16442;SDS011;8331;51.654;14.376;2023-04-25T01:22:53;3.30;;;3.10;;
16442;SDS011;8331;51.654;14.376;2023-04-25T01:25:20;6.23;;;3.20;;
16442;SDS011;8331;51.654;14.376;2023-04-25T01:27:47;3.97;;;3.63;;
16442;SDS011;8331;51.654;14.376;2023-04-25T01:30:14;4.07;;;3.60;;
16442;SDS011;8331;51.654;14.376;2023-04-25T01:32:45;3.90;;;3.50;;
16442;SDS011;8331;51.654;14.376;2023-04-25T01:35:12;3.73;;;3.43;;
16442;SDS011;8331;51.654;14.376;2023-04-25T01:37:41;4.60;;;3.50;;
16442;SDS011;8331;51.654;14.376;2023-04-25T01:40:10;4.30;;;3.40;;
16442;SDS011;8331;51.654;14.376;2023-04-25T01:42:38;3.97;;;3.50;;
16442;SDS011;8331;51.654;14.376;2023-04-25T01:45:06;3.90;;;3.40;;
16442;SDS011;8331;51.654;14.376;2023-04-25T01:47:33;4.37;;;3.50;;
16442;SDS011;8331;51.654;14.376;2023-04-25T01:50:02;3.53;;;3.23;;
16442;SDS011;8331;51.654;14.376;2023-04-25T01:52:30;3.50;;;3.20;;
16442;SDS011;8331;51.654;14.376;2023-04-25T01:54:57;3.87;;;3.40;;
16442;SDS011;8331;51.654;14.376;2023-04-25T01:57:27;3.87;;;3.57;;
16442;SDS011;8331;51.654;14.376;2023-04-25T02:00:00;5.47;;;3.40;;
16442;SDS011;8331;51.654;14.376;2023-04-25T02:02:39;5.87;;;4.20;;
16442;SDS011;8331;51.654;14.376;2023-04-25T02:05:16;3.33;;;3.13;;
16442;SDS011;8331;51.654;14.376;2023-04-25T02:07:43;4.00;;;3.37;;
16442;SDS011;8331;51.654;14.376;2023-04-25T02:10:10;4.13;;;3.73;;
16442;SDS011;8331;51.654;14.376;2023-04-25T02:12:49;3.73;;;3.43;;
16442;SDS011;8331;51.654;14.376;2023-04-25T02:15:21;4.30;;;3.37;;
16442;SDS011;8331;51.654;14.376;2023-04-25T02:17:51;3.47;;;3.17;;
16442;SDS011;8331;51.654;14.376;2023-04-25T02:20:21;4.37;;;3.30;;
16442;SDS011;8331;51.654;14.376;2023-04-25T02:22:48;3.93;;;3.20;;
16442;SDS011;8331;51.654;14.376;2023-04-25T02:25:15;3.27;;;3.07;;
16442;SDS011;8331;51.654;14.376;2023-04-25T02:27:46;3.37;;;3.17;;
16442;SDS011;8331;51.654;14.376;2023-04-25T02:30:13;3.10;;;2.90;;
16442;SDS011;8331;51.654;14.376;2023-04-25T02:32:40;3.60;;;3.40;;
16442;SDS011;8331;51.654;14.376;2023-04-25T02:35:08;3.53;;;3.23;;
16442;SDS011;8331;51.654;14.376;2023-04-25T02:37:35;3.17;;;2.87;;
16442;SDS011;8331;51.654;14.376;2023-04-25T02:40:02;3.77;;;3.47;;
16442;SDS011;8331;51.654;14.376;2023-04-25T02:42:30;3.63;;;3.30;;
16442;SDS011;8331;51.654;14.376;2023-04-25T02:44:57;3.70;;;3.40;;
16442;SDS011;8331;51.654;14.376;2023-04-25T02:47:25;3.30;;;3.10;;
16442;SDS011;8331;51.654;14.376;2023-04-25T02:49:52;4.40;;;3.40;;
16442;SDS011;8331;51.654;14.376;2023-04-25T02:52:19;3.43;;;3.23;;
16442;SDS011;8331;51.654;14.376;2023-04-25T02:54:53;3.83;;;3.57;;
16442;SDS011;8331;51.654;14.376;2023-04-25T02:57:19;6.40;;;3.03;;
16442;SDS011;8331;51.654;14.376;2023-04-25T02:59:46;4.57;;;3.53;;
16442;SDS011;8331;51.654;14.376;2023-04-25T03:02:12;3.77;;;3.47;;
16442;SDS011;8331;51.654;14.376;2023-04-25T03:04:39;3.60;;;3.30;;
16442;SDS011;8331;51.654;14.376;2023-04-25T03:07:06;5.57;;;3.53;;
16442;SDS011;8331;51.654;14.376;2023-04-25T03:09:33;3.47;;;3.27;;
16442;SDS011;8331;51.654;14.376;2023-04-25T03:11:59;4.00;;;3.70;;
16442;SDS011;8331;51.654;14.376;2023-04-25T03:14:26;4.00;;;3.53;;
16442;SDS011;8331;51.654;14.376;2023-04-25T03:16:53;4.30;;;3.27;;
16442;SDS011;8331;51.654;14.376;2023-04-25T03:19:21;4.60;;;3.50;;
16442;SDS011;8331;51.654;14.376;2023-04-25T03:21:47;5.20;;;3.60;;
16442;SDS011;8331;51.654;14.376;2023-04-25T03:24:14;4.50;;;3.50;;
16442;SDS011;8331;51.654;14.376;2023-04-25T03:26:41;4.07;;;3.67;;
16442;SDS011;8331;51.654;14.376;2023-04-25T03:29:08;8.23;;;3.93;;
16442;SDS011;8331;51.654;14.376;2023-04-25T03:31:36;4.23;;;3.63;;
16442;SDS011;8331;51.654;14.376;2023-04-25T03:34:03;3.73;;;3.50;;
16442;SDS011;8331;51.654;14.376;2023-04-25T03:36:30;7.67;;;3.87;;
16442;SDS011;8331;51.654;14.376;2023-04-25T03:38:56;3.83;;;3.53;;
16442;SDS011;8331;51.654;14.376;2023-04-25T03:41:23;8.77;;;3.60;;
16442;SDS011;8331;51.654;14.376;2023-04-25T03:43:56;4.47;;;3.80;;
16442;SDS011;8331;51.654;14.376;2023-04-25T03:46:22;6.70;;;3.93;;
16442;SDS011;8331;51.654;14.376;2023-04-25T03:48:49;6.47;;;3.73;;
16442;SDS011;8331;51.654;14.376;2023-04-25T03:51:23;3.67;;;3.27;;
16442;SDS011;8331;51.654;14.376;2023-04-25T03:53:49;4.53;;;3.93;;
16442;SDS011;8331;51.654;14.376;2023-04-25T03:56:48;4.27;;;3.80;;
16442;SDS011;8331;51.654;14.376;2023-04-25T03:59:19;4.10;;;3.70;;
16442;SDS011;8331;51.654;14.376;2023-04-25T04:01:46;6.03;;;3.73;;
16442;SDS011;8331;51.654;14.376;2023-04-25T04:04:13;6.33;;;3.73;;
16442;SDS011;8331;51.654;14.376;2023-04-25T04:06:40;5.07;;;3.97;;
16442;SDS011;8331;51.654;14.376;2023-04-25T04:09:12;4.37;;;3.97;;
16442;SDS011;8331;51.654;14.376;2023-04-25T04:11:41;7.73;;;3.83;;
16442;SDS011;8331;51.654;14.376;2023-04-25T04:14:08;6.53;;;4.00;;
16442;SDS011;8331;51.654;14.376;2023-04-25T04:16:39;12.93;;;4.00;;
16442;SDS011;8331;51.654;14.376;2023-04-25T04:19:07;3.90;;;3.60;;
16442;SDS011;8331;51.654;14.376;2023-04-25T04:21:35;6.07;;;4.18;;
16442;SDS011;8331;51.654;14.376;2023-04-25T04:24:02;4.10;;;3.80;;
16442;SDS011;8331;51.654;14.376;2023-04-25T04:26:38;3.87;;;3.17;;
16442;SDS011;8331;51.654;14.376;2023-04-25T04:29:11;3.90;;;3.50;;
16442;SDS011;8331;51.654;14.376;2023-04-25T04:31:48;4.97;;;3.57;;
16442;SDS011;8331;51.654;14.376;2023-04-25T04:34:19;3.90;;;3.50;;
16442;SDS011;8331;51.654;14.376;2023-04-25T04:36:45;3.80;;;3.23;;
16442;SDS011;8331;51.654;14.376;2023-04-25T04:39:13;6.73;;;3.97;;
16442;SDS011;8331;51.654;14.376;2023-04-25T04:41:54;4.60;;;3.47;;
16442;SDS011;8331;51.654;14.376;2023-04-25T04:44:39;8.10;;;3.87;;
16442;SDS011;8331;51.654;14.376;2023-04-25T04:47:23;4.97;;;3.97;;
16442;SDS011;8331;51.654;14.376;2023-04-25T04:50:09;4.97;;;3.60;;
16442;SDS011;8331;51.654;14.376;2023-04-25T04:52:59;3.53;;;3.23;;
16442;SDS011;8331;51.654;14.376;2023-04-25T04:55:58;5.07;;;3.90;;
16442;SDS011;8331;51.654;14.376;2023-04-25T04:58:44;10.03;;;3.90;;
16442;SDS011;8331;51.654;14.376;2023-04-25T05:01:20;6.23;;;3.60;;
16442;SDS011;8331;51.654;14.376;2023-04-25T05:04:02;7.07;;;4.10;;
16442;SDS011;8331;51.654;14.376;2023-04-25T05:06:44;4.07;;;3.70;;
16442;SDS011;8331;51.654;14.376;2023-04-25T05:09:23;4.57;;;4.27;;
16442;SDS011;8331;51.654;14.376;2023-04-25T05:12:04;4.63;;;3.90;;
16442;SDS011;8331;51.654;14.376;2023-04-25T05:14:53;5.23;;;4.03;;
16442;SDS011;8331;51.654;14.376;2023-04-25T05:17:39;4.10;;;3.73;;
16442;SDS011;8331;51.654;14.376;2023-04-25T05:20:28;4.37;;;3.70;;
16442;SDS011;8331;51.654;14.376;2023-04-25T05:23:15;5.13;;;4.57;;
16442;SDS011;8331;51.654;14.376;2023-04-25T05:26:08;5.53;;;4.80;;
16442;SDS011;8331;51.654;14.376;2023-04-25T05:28:53;6.50;;;5.37;;
16442;SDS011;8331;51.654;14.376;2023-04-25T05:31:40;6.07;;;5.27;;
16442;SDS011;8331;51.654;14.376;2023-04-25T05:34:10;6.43;;;5.72;;
16442;SDS011;8331;51.654;14.376;2023-04-25T05:36:46;6.53;;;5.83;;
16442;SDS011;8331;51.654;14.376;2023-04-25T05:39:15;5.80;;;5.30;;
16442;SDS011;8331;51.654;14.376;2023-04-25T05:42:06;5.70;;;5.20;;
16442;SDS011;8331;51.654;14.376;2023-04-25T05:44:58;5.57;;;5.00;;
16442;SDS011;8331;51.654;14.376;2023-04-25T05:47:31;5.93;;;5.33;;
16442;SDS011;8331;51.654;14.376;2023-04-25T05:50:21;7.00;;;5.20;;
16442;SDS011;8331;51.654;14.376;2023-04-25T05:53:01;5.80;;;5.20;;
16442;SDS011;8331;51.654;14.376;2023-04-25T05:55:31;5.67;;;4.60;;
16442;SDS011;8331;51.654;14.376;2023-04-25T05:58:00;5.57;;;5.03;;
16442;SDS011;8331;51.654;14.376;2023-04-25T06:00:27;4.60;;;4.27;;
16442;SDS011;8331;51.654;14.376;2023-04-25T06:02:54;6.50;;;4.60;;
16442;SDS011;8331;51.654;14.376;2023-04-25T06:05:21;5.57;;;4.83;;
16442;SDS011;8331;51.654;14.376;2023-04-25T06:07:48;4.90;;;4.50;;
16442;SDS011;8331;51.654;14.376;2023-04-25T06:10:15;4.40;;;4.10;;
16442;SDS011;8331;51.654;14.376;2023-04-25T06:12:42;5.83;;;4.27;;
16442;SDS011;8331;51.654;14.376;2023-04-25T06:15:09;4.87;;;4.47;;
16442;SDS011;8331;51.654;14.376;2023-04-25T06:17:52;6.27;;;5.33;;
16442;SDS011;8331;51.654;14.376;2023-04-25T06:20:19;6.30;;;4.70;;
16442;SDS011;8331;51.654;14.376;2023-04-25T06:22:50;7.27;;;4.40;;
16442;SDS011;8331;51.654;14.376;2023-04-25T06:25:19;6.70;;;4.70;;
16442;SDS011;8331;51.654;14.376;2023-04-25T06:27:46;7.40;;;4.10;;
16442;SDS011;8331;51.654;14.376;2023-04-25T06:30:13;7.80;;;4.67;;
16442;SDS011;8331;51.654;14.376;2023-04-25T06:32:40;6.30;;;4.20;;
16442;SDS011;8331;51.654;14.376;2023-04-25T06:35:07;8.17;;;4.20;;
16442;SDS011;8331;51.654;14.376;2023-04-25T06:37:34;5.63;;;4.50;;
16442;SDS011;8331;51.654;14.376;2023-04-25T06:40:01;8.87;;;4.50;;
16442;SDS011;8331;51.654;14.376;2023-04-25T06:42:28;4.63;;;4.00;;
16442;SDS011;8331;51.654;14.376;2023-04-25T06:44:58;7.00;;;4.50;;
16442;SDS011;8331;51.654;14.376;2023-04-25T06:47:27;4.57;;;3.77;;
16442;SDS011;8331;51.654;14.376;2023-04-25T06:49:54;4.70;;;4.23;;
16442;SDS011;8331;51.654;14.376;2023-04-25T06:52:21;5.83;;;3.90;;
16442;SDS011;8331;51.654;14.376;2023-04-25T06:54:49;4.27;;;3.73;;
16442;SDS011;8331;51.654;14.376;2023-04-25T06:57:24;5.70;;;3.80;;
16442;SDS011;8331;51.654;14.376;2023-04-25T06:59:50;5.10;;;3.30;;
16442;SDS011;8331;51.654;14.376;2023-04-25T07:02:17;4.30;;;3.60;;
16442;SDS011;8331;51.654;14.376;2023-04-25T07:04:44;6.23;;;3.97;;
16442;SDS011;8331;51.654;14.376;2023-04-25T07:07:13;5.20;;;3.30;;
16442;SDS011;8331;51.654;14.376;2023-04-25T07:09:50;4.23;;;3.30;;
16442;SDS011;8331;51.654;14.376;2023-04-25T07:12:17;5.50;;;3.53;;
16442;SDS011;8331;51.654;14.376;2023-04-25T07:14:44;4.13;;;3.13;;
16442;SDS011;8331;51.654;14.376;2023-04-25T07:17:11;4.53;;;3.20;;
16442;SDS011;8331;51.654;14.376;2023-04-25T07:19:38;6.37;;;3.40;;
16442;SDS011;8331;51.654;14.376;2023-04-25T07:22:07;6.80;;;3.10;;
16442;SDS011;8331;51.654;14.376;2023-04-25T07:24:36;5.67;;;3.43;;
16442;SDS011;8331;51.654;14.376;2023-04-25T07:27:06;5.43;;;3.33;;
16442;SDS011;8331;51.654;14.376;2023-04-25T07:29:45;4.87;;;2.70;;
16442;SDS011;8331;51.654;14.376;2023-04-25T07:32:12;3.53;;;2.83;;
16442;SDS011;8331;51.654;14.376;2023-04-25T07:34:41;3.67;;;2.70;;
16442;SDS011;8331;51.654;14.376;2023-04-25T07:37:08;3.73;;;3.20;;
16442;SDS011;8331;51.654;14.376;2023-04-25T07:39:45;3.33;;;3.00;;
16442;SDS011;8331;51.654;14.376;2023-04-25T07:42:13;3.83;;;2.97;;
16442;SDS011;8331;51.654;14.376;2023-04-25T07:44:42;4.67;;;2.83;;
16442;SDS011;8331;51.654;14.376;2023-04-25T07:47:11;3.27;;;2.53;;
16442;SDS011;8331;51.654;14.376;2023-04-25T07:49:37;3.47;;;2.80;;
16442;SDS011;8331;51.654;14.376;2023-04-25T07:52:05;5.20;;;2.80;;
16442;SDS011;8331;51.654;14.376;2023-04-25T07:54:34;3.53;;;2.83;;
16442;SDS011;8331;51.654;14.376;2023-04-25T07:57:08;4.53;;;2.80;;
16442;SDS011;8331;51.654;14.376;2023-04-25T07:59:36;3.37;;;2.30;;
16442;SDS011;8331;51.654;14.376;2023-04-25T08:02:04;2.60;;;2.37;;
16442;SDS011;8331;51.654;14.376;2023-04-25T08:04:31;5.77;;;2.53;;
16442;SDS011;8331;51.654;14.376;2023-04-25T08:07:02;5.43;;;2.53;;
16442;SDS011;8331;51.654;14.376;2023-04-25T08:09:37;5.33;;;2.90;;
16442;SDS011;8331;51.654;14.376;2023-04-25T08:12:07;3.87;;;2.40;;
16442;SDS011;8331;51.654;14.376;2023-04-25T08:14:35;2.40;;;2.20;;
16442;SDS011;8331;51.654;14.376;2023-04-25T08:17:06;2.57;;;2.37;;
16442;SDS011;8331;51.654;14.376;2023-04-25T08:19:38;5.77;;;2.63;;
16442;SDS011;8331;51.654;14.376;2023-04-25T08:22:08;4.67;;;2.50;;
16442;SDS011;8331;51.654;14.376;2023-04-25T08:24:46;3.13;;;2.60;;
16442;SDS011;8331;51.654;14.376;2023-04-25T08:27:12;4.77;;;2.70;;
16442;SDS011;8331;51.654;14.376;2023-04-25T08:29:40;4.10;;;2.67;;
16442;SDS011;8331;51.654;14.376;2023-04-25T08:32:06;2.30;;;2.10;;
16442;SDS011;8331;51.654;14.376;2023-04-25T08:34:37;2.70;;;2.50;;
16442;SDS011;8331;51.654;14.376;2023-04-25T08:37:05;3.57;;;2.47;;
16442;SDS011;8331;51.654;14.376;2023-04-25T08:39:52;2.83;;;2.33;;
16442;SDS011;8331;51.654;14.376;2023-04-25T08:42:56;3.30;;;2.40;;
16442;SDS011;8331;51.654;14.376;2023-04-25T08:45:24;2.70;;;2.30;;
16442;SDS011;8331;51.654;14.376;2023-04-25T08:47:51;4.90;;;2.53;;
16442;SDS011;8331;51.654;14.376;2023-04-25T08:50:19;3.77;;;2.00;;
16442;SDS011;8331;51.654;14.376;2023-04-25T08:52:50;5.10;;;2.67;;
16442;SDS011;8331;51.654;14.376;2023-04-25T08:55:20;2.30;;;2.10;;
16442;SDS011;8331;51.654;14.376;2023-04-25T08:57:50;2.40;;;2.13;;
16442;SDS011;8331;51.654;14.376;2023-04-25T09:00:17;2.30;;;1.90;;
16442;SDS011;8331;51.654;14.376;2023-04-25T09:02:46;2.73;;;2.20;;
16442;SDS011;8331;51.654;14.376;2023-04-25T09:05:13;3.87;;;2.07;;
16442;SDS011;8331;51.654;14.376;2023-04-25T09:07:41;3.03;;;2.43;;
16442;SDS011;8331;51.654;14.376;2023-04-25T09:10:08;3.10;;;2.13;;
16442;SDS011;8331;51.654;14.376;2023-04-25T09:12:36;4.47;;;2.53;;
16442;SDS011;8331;51.654;14.376;2023-04-25T09:15:07;3.57;;;2.40;;
16442;SDS011;8331;51.654;14.376;2023-04-25T09:17:55;4.10;;;2.50;;
16442;SDS011;8331;51.654;14.376;2023-04-25T09:20:24;3.60;;;2.40;;
16442;SDS011;8331;51.654;14.376;2023-04-25T09:23:00;3.87;;;2.60;;
16442;SDS011;8331;51.654;14.376;2023-04-25T09:25:33;5.43;;;2.53;;
16442;SDS011;8331;51.654;14.376;2023-04-25T09:28:00;2.87;;;2.67;;
16442;SDS011;8331;51.654;14.376;2023-04-25T09:30:31;3.00;;;2.77;;
16442;SDS011;8331;51.654;14.376;2023-04-25T09:33:05;3.80;;;2.60;;
16442;SDS011;8331;51.654;14.376;2023-04-25T09:36:06;3.23;;;2.60;;
16442;SDS011;8331;51.654;14.376;2023-04-25T09:38:40;3.37;;;2.57;;
16442;SDS011;8331;51.654;14.376;2023-04-25T09:41:14;10.73;;;4.70;;
16442;SDS011;8331;51.654;14.376;2023-04-25T09:43:48;4.40;;;3.40;;
16442;SDS011;8331;51.654;14.376;2023-04-25T09:46:15;3.43;;;3.07;;
16442;SDS011;8331;51.654;14.376;2023-04-25T09:48:49;3.33;;;2.50;;
16442;SDS011;8331;51.654;14.376;2023-04-25T09:51:25;3.30;;;3.00;;
16442;SDS011;8331;51.654;14.376;2023-04-25T09:53:52;7.03;;;3.20;;
16442;SDS011;8331;51.654;14.376;2023-04-25T09:56:41;2.77;;;2.47;;
16442;SDS011;8331;51.654;14.376;2023-04-25T09:59:09;3.47;;;2.53;;
16442;SDS011;8331;51.654;14.376;2023-04-25T10:01:36;5.27;;;2.40;;
16442;SDS011;8331;51.654;14.376;2023-04-25T10:04:10;3.30;;;2.30;;
16442;SDS011;8331;51.654;14.376;2023-04-25T10:06:59;2.43;;;2.23;;
16442;SDS011;8331;51.654;14.376;2023-04-25T10:09:26;2.83;;;2.40;;
16442;SDS011;8331;51.654;14.376;2023-04-25T10:11:58;2.60;;;2.40;;
16442;SDS011;8331;51.654;14.376;2023-04-25T10:14:25;3.30;;;3.00;;
16442;SDS011;8331;51.654;14.376;2023-04-25T10:16:53;3.67;;;3.17;;
16442;SDS011;8331;51.654;14.376;2023-04-25T10:19:23;5.25;;;3.80;;
16442;SDS011;8331;51.654;14.376;2023-04-25T10:21:58;4.87;;;3.43;;
16442;SDS011;8331;51.654;14.376;2023-04-25T10:24:28;6.13;;;3.80;;
16442;SDS011;8331;51.654;14.376;2023-04-25T10:26:55;4.27;;;3.50;;
16442;SDS011;8331;51.654;14.376;2023-04-25T10:29:25;4.33;;;3.77;;
16442;SDS011;8331;51.654;14.376;2023-04-25T10:31:52;4.67;;;3.50;;
16442;SDS011;8331;51.654;14.376;2023-04-25T10:34:19;6.53;;;4.63;;
16442;SDS011;8331;51.654;14.376;2023-04-25T10:36:49;5.67;;;4.20;;
16442;SDS011;8331;51.654;14.376;2023-04-25T10:39:21;6.20;;;4.00;;
16442;SDS011;8331;51.654;14.376;2023-04-25T10:41:52;5.03;;;4.60;;
16442;SDS011;8331;51.654;14.376;2023-04-25T10:44:18;4.87;;;4.43;;
16442;SDS011;8331;51.654;14.376;2023-04-25T10:46:45;5.83;;;4.37;;
16442;SDS011;8331;51.654;14.376;2023-04-25T10:49:28;6.90;;;5.37;;
16442;SDS011;8331;51.654;14.376;2023-04-25T10:52:10;6.70;;;6.20;;
16442;SDS011;8331;51.654;14.376;2023-04-25T10:54:41;6.17;;;5.50;;
16442;SDS011;8331;51.654;14.376;2023-04-25T10:57:07;6.97;;;5.47;;
16442;SDS011;8331;51.654;14.376;2023-04-25T10:59:34;6.17;;;5.60;;
16442;SDS011;8331;51.654;14.376;2023-04-25T11:02:00;6.37;;;5.70;;
16442;SDS011;8331;51.654;14.376;2023-04-25T11:04:37;6.10;;;5.50;;
16442;SDS011;8331;51.654;14.376;2023-04-25T11:09:47;5.97;;;4.80;;
16442;SDS011;8331;51.654;14.376;2023-04-25T11:12:13;4.27;;;2.70;;
16442;SDS011;8331;51.654;14.376;2023-04-25T11:14:41;4.40;;;4.00;;
16442;SDS011;8331;51.654;14.376;2023-04-25T11:17:07;3.60;;;3.40;;
16442;SDS011;8331;51.654;14.376;2023-04-25T11:19:35;5.03;;;4.00;;
16442;SDS011;8331;51.654;14.376;2023-04-25T11:22:02;4.30;;;3.93;;
16442;SDS011;8331;51.654;14.376;2023-04-25T11:24:32;4.33;;;4.03;;
16442;SDS011;8331;51.654;14.376;2023-04-25T11:26:59;4.57;;;4.07;;
16442;SDS011;8331;51.654;14.376;2023-04-25T11:29:32;6.27;;;4.40;;
16442;SDS011;8331;51.654;14.376;2023-04-25T11:31:59;4.73;;;4.17;;
16442;SDS011;8331;51.654;14.376;2023-04-25T11:34:29;4.97;;;4.27;;
16442;SDS011;8331;51.654;14.376;2023-04-25T11:37:01;4.50;;;3.93;;
16442;SDS011;8331;51.654;14.376;2023-04-25T11:39:28;3.77;;;3.47;;
16442;SDS011;8331;51.654;14.376;2023-04-25T11:41:55;3.63;;;3.07;;
16442;SDS011;8331;51.654;14.376;2023-04-25T11:44:22;2.93;;;2.73;;
16442;SDS011;8331;51.654;14.376;2023-04-25T11:46:48;3.20;;;2.40;;
16442;SDS011;8331;51.654;14.376;2023-04-25T11:49:15;2.57;;;2.37;;
16442;SDS011;8331;51.654;14.376;2023-04-25T11:51:45;3.70;;;2.50;;
16442;SDS011;8331;51.654;14.376;2023-04-25T11:54:12;3.50;;;2.83;;
16442;SDS011;8331;51.654;14.376;2023-04-25T11:56:43;3.77;;;2.60;;
16442;SDS011;8331;51.654;14.376;2023-04-25T11:59:10;4.53;;;2.37;;
16442;SDS011;8331;51.654;14.376;2023-04-25T12:01:38;2.73;;;2.23;;
16442;SDS011;8331;51.654;14.376;2023-04-25T12:06:42;2.70;;;2.50;;
16442;SDS011;8331;51.654;14.376;2023-04-25T12:09:12;5.97;;;3.07;;
16442;SDS011;8331;51.654;14.376;2023-04-25T12:11:45;4.23;;;3.83;;
16442;SDS011;8331;51.654;14.376;2023-04-25T12:14:12;8.50;;;3.60;;
16442;SDS011;8331;51.654;14.376;2023-04-25T12:16:46;4.17;;;3.03;;
16442;SDS011;8331;51.654;14.376;2023-04-25T12:19:19;8.83;;;5.33;;
16442;SDS011;8331;51.654;14.376;2023-04-25T12:21:46;10.20;;;3.67;;
16442;SDS011;8331;51.654;14.376;2023-04-25T12:24:24;6.53;;;2.77;;
16442;SDS011;8331;51.654;14.376;2023-04-25T12:26:53;6.10;;;3.20;;
16442;SDS011;8331;51.654;14.376;2023-04-25T12:29:20;5.50;;;2.73;;
16442;SDS011;8331;51.654;14.376;2023-04-25T12:31:48;9.87;;;3.23;;
16442;SDS011;8331;51.654;14.376;2023-04-25T12:34:15;7.13;;;3.20;;
16442;SDS011;8331;51.654;14.376;2023-04-25T12:36:42;8.97;;;3.20;;
16442;SDS011;8331;51.654;14.376;2023-04-25T12:39:14;8.53;;;3.00;;
16442;SDS011;8331;51.654;14.376;2023-04-25T12:41:41;8.40;;;3.30;;
16442;SDS011;8331;51.654;14.376;2023-04-25T12:44:08;7.53;;;3.70;;
16442;SDS011;8331;51.654;14.376;2023-04-25T12:46:35;7.20;;;3.17;;
16442;SDS011;8331;51.654;14.376;2023-04-25T12:49:02;6.00;;;3.63;;
16442;SDS011;8331;51.654;14.376;2023-04-25T12:51:43;7.23;;;3.37;;
16442;SDS011;8331;51.654;14.376;2023-04-25T12:54:10;10.53;;;3.50;;
16442;SDS011;8331;51.654;14.376;2023-04-25T12:56:36;14.50;;;10.33;;
16442;SDS011;8331;51.654;14.376;2023-04-25T12:59:03;9.80;;;5.70;;
16442;SDS011;8331;51.654;14.376;2023-04-25T13:01:30;8.53;;;4.23;;
16442;SDS011;8331;51.654;14.376;2023-04-25T13:03:58;12.83;;;8.37;;
16442;SDS011;8331;51.654;14.376;2023-04-25T13:06:24;8.97;;;7.30;;
16442;SDS011;8331;51.654;14.376;2023-04-25T13:08:52;13.13;;;3.97;;
16442;SDS011;8331;51.654;14.376;2023-04-25T13:11:19;8.20;;;4.10;;
16442;SDS011;8331;51.654;14.376;2023-04-25T13:13:46;4.63;;;2.70;;
16442;SDS011;8331;51.654;14.376;2023-04-25T13:16:12;6.07;;;2.87;;
16442;SDS011;8331;51.654;14.376;2023-04-25T13:18:42;6.70;;;2.57;;
16442;SDS011;8331;51.654;14.376;2023-04-25T13:21:09;5.90;;;3.13;;
16442;SDS011;8331;51.654;14.376;2023-04-25T13:23:35;8.57;;;2.97;;
16442;SDS011;8331;51.654;14.376;2023-04-25T13:26:02;4.30;;;2.40;;
16442;SDS011;8331;51.654;14.376;2023-04-25T13:28:29;6.57;;;5.37;;
16442;SDS011;8331;51.654;14.376;2023-04-25T13:30:55;7.03;;;2.90;;
16442;SDS011;8331;51.654;14.376;2023-04-25T13:33:22;4.93;;;2.80;;
16442;SDS011;8331;51.654;14.376;2023-04-25T13:35:49;6.07;;;2.90;;
16442;SDS011;8331;51.654;14.376;2023-04-25T13:38:23;5.57;;;2.50;;
16442;SDS011;8331;51.654;14.376;2023-04-25T13:40:51;6.73;;;3.10;;
16442;SDS011;8331;51.654;14.376;2023-04-25T13:43:21;5.00;;;3.30;;
16442;SDS011;8331;51.654;14.376;2023-04-25T13:45:51;5.97;;;2.73;;
16442;SDS011;8331;51.654;14.376;2023-04-25T13:48:18;4.23;;;2.93;;
16442;SDS011;8331;51.654;14.376;2023-04-25T13:50:44;5.63;;;3.07;;
16442;SDS011;8331;51.654;14.376;2023-04-25T13:53:12;5.97;;;2.70;;
16442;SDS011;8331;51.654;14.376;2023-04-25T13:55:38;7.80;;;3.57;;
16442;SDS011;8331;51.654;14.376;2023-04-25T13:58:05;8.03;;;6.70;;
16442;SDS011;8331;51.654;14.376;2023-04-25T14:00:37;6.53;;;5.00;;
16442;SDS011;8331;51.654;14.376;2023-04-25T14:03:05;7.67;;;4.70;;
16442;SDS011;8331;51.654;14.376;2023-04-25T14:05:35;6.13;;;3.60;;
16442;SDS011;8331;51.654;14.376;2023-04-25T14:08:08;7.47;;;4.60;;
16442;SDS011;8331;51.654;14.376;2023-04-25T14:10:36;6.10;;;3.57;;
16442;SDS011;8331;51.654;14.376;2023-04-25T14:13:03;12.30;;;3.67;;
16442;SDS011;8331;51.654;14.376;2023-04-25T14:15:33;7.33;;;4.17;;
16442;SDS011;8331;51.654;14.376;2023-04-25T14:18:00;6.77;;;2.73;;
16442;SDS011;8331;51.654;14.376;2023-04-25T14:20:27;6.60;;;2.30;;
16442;SDS011;8331;51.654;14.376;2023-04-25T14:22:54;7.83;;;2.77;;
16442;SDS011;8331;51.654;14.376;2023-04-25T14:25:22;5.17;;;2.63;;
16442;SDS011;8331;51.654;14.376;2023-04-25T14:27:49;7.13;;;3.10;;
16442;SDS011;8331;51.654;14.376;2023-04-25T14:30:17;4.13;;;2.90;;
16442;SDS011;8331;51.654;14.376;2023-04-25T14:32:44;6.60;;;3.50;;
16442;SDS011;8331;51.654;14.376;2023-04-25T14:35:11;9.33;;;3.83;;
16442;SDS011;8331;51.654;14.376;2023-04-25T14:37:38;5.97;;;2.50;;
16442;SDS011;8331;51.654;14.376;2023-04-25T14:40:06;6.73;;;2.87;;
16442;SDS011;8331;51.654;14.376;2023-04-25T14:42:33;6.93;;;2.83;;
16442;SDS011;8331;51.654;14.376;2023-04-25T14:45:00;7.20;;;2.97;;
16442;SDS011;8331;51.654;14.376;2023-04-25T14:47:27;5.43;;;2.60;;
16442;SDS011;8331;51.654;14.376;2023-04-25T14:49:53;4.87;;;3.30;;
16442;SDS011;8331;51.654;14.376;2023-04-25T14:52:20;4.77;;;2.90;;
16442;SDS011;8331;51.654;14.376;2023-04-25T14:54:47;5.70;;;3.40;;
16442;SDS011;8331;51.654;14.376;2023-04-25T14:57:14;8.23;;;3.43;;
16442;SDS011;8331;51.654;14.376;2023-04-25T14:59:41;8.20;;;3.87;;
16442;SDS011;8331;51.654;14.376;2023-04-25T15:02:07;7.20;;;3.17;;
16442;SDS011;8331;51.654;14.376;2023-04-25T15:04:34;6.47;;;2.73;;
16442;SDS011;8331;51.654;14.376;2023-04-25T15:07:01;6.03;;;3.20;;
16442;SDS011;8331;51.654;14.376;2023-04-25T15:09:28;6.83;;;3.10;;
16442;SDS011;8331;51.654;14.376;2023-04-25T15:11:55;5.60;;;3.50;;